Time;durP1;ratioP1;P1;durP2;ratioP2;P2;SDS_P1;SDS_P2;PMS_P1;PMS_P2;Temp;Humidity;BMP_temperature;BMP_pressure;BME280_temperature;BME280_humidity;BME280_pressure;Samples;Min_cycle;Max_cycle;Signal;HPM_P1;HPM_P2
2021/11/26 00:00:31;;;;;;;18.20;11.40;;;;;;;2.00;100.00;99782.09;5043198;28;20218;-75
2021/11/26 00:02:57;;;;;;;17.53;10.73;;;;;;;2.00;100.00;99771.78;5042459;28;20241;-76
2021/11/26 00:05:23;;;;;;;16.53;10.80;;;;;;;2.01;100.00;99776.09;5043572;28;20215;-76
2021/11/26 00:07:50;;;;;;;18.00;11.83;;;;;;;2.03;100.00;99769.22;5042124;28;20211;-75
2021/11/26 00:10:16;;;;;;;19.87;11.87;;;;;;;2.01;100.00;99765.81;5043220;28;20207;-75
2021/11/26 00:12:51;;;;;;;16.43;10.97;;;;;;;2.02;100.00;99764.97;5042070;28;20227;-75
2021/11/26 00:15:21;;;;;;;19.10;11.47;;;;;;;2.06;100.00;99768.38;5044418;28;20206;-75
2021/11/26 00:17:51;;;;;;;20.53;12.63;;;;;;;2.04;100.00;99760.66;5040846;28;20209;-75
2021/11/26 00:20:18;;;;;;;20.97;11.97;;;;;;;2.05;100.00;99762.34;5043356;28;20219;-76
2021/11/26 00:22:44;;;;;;;24.63;12.37;;;;;;;2.04;100.00;99755.50;5039324;28;20227;-76
2021/11/26 00:25:11;;;;;;;17.93;10.93;;;;;;;2.05;100.00;99753.78;5044109;28;20231;-76
2021/11/26 00:27:37;;;;;;;18.67;11.53;;;;;;;2.04;100.00;99750.38;5025143;28;20222;-76
2021/11/26 00:30:07;;;;;;;17.83;11.80;;;;;;;2.05;100.00;99751.22;5026039;28;20203;-76
2021/11/26 00:32:34;;;;;;;19.13;11.60;;;;;;;2.07;100.00;99746.91;5038586;28;21819;-75
2021/11/26 00:35:00;;;;;;;20.30;11.80;;;;;;;2.06;100.00;99750.38;5043124;28;20203;-76
2021/11/26 00:37:27;;;;;;;19.17;12.13;;;;;;;2.06;100.00;99748.63;5041629;28;20211;-75
2021/11/26 00:39:53;;;;;;;20.03;12.57;;;;;;;2.06;100.00;99745.22;5040835;28;20207;-76
2021/11/26 00:42:20;;;;;;;19.63;11.83;;;;;;;2.08;100.00;99741.75;5041069;28;20230;-77
2021/11/26 00:44:46;;;;;;;23.43;12.87;;;;;;;2.08;100.00;99731.47;5041895;28;20759;-76
2021/11/26 00:47:14;;;;;;;18.73;12.03;;;;;;;2.08;100.00;99723.75;5026212;28;20299;-76
2021/11/26 00:49:41;;;;;;;21.23;12.83;;;;;;;2.11;100.00;99722.03;5038969;28;20214;-76
2021/11/26 00:52:08;;;;;;;18.83;11.63;;;;;;;2.13;100.00;99723.75;5043699;28;20233;-76
2021/11/26 00:54:34;;;;;;;21.90;12.47;;;;;;;2.12;100.00;99719.47;5042062;28;20242;-75
2021/11/26 00:57:02;;;;;;;20.27;12.67;;;;;;;2.11;100.00;99709.19;5041867;28;20219;-76
2021/11/26 00:59:28;;;;;;;20.47;12.47;;;;;;;2.12;100.00;99709.16;5041355;28;20249;-76
2021/11/26 01:01:54;;;;;;;20.93;12.63;;;;;;;2.14;100.00;99711.72;5040762;28;20786;-76
2021/11/26 01:04:22;;;;;;;20.40;12.00;;;;;;;2.13;100.00;99700.59;5040168;28;20211;-76
2021/11/26 01:06:48;;;;;;;19.07;12.00;;;;;;;2.15;100.00;99703.16;5040721;28;20554;-76
2021/11/26 01:09:15;;;;;;;20.73;12.37;;;;;;;2.16;100.00;99702.28;5040955;28;20207;-77
2021/11/26 01:11:41;;;;;;;19.80;12.17;;;;;;;2.14;100.00;99693.72;5043444;28;20203;-76
2021/11/26 01:14:08;;;;;;;22.57;12.87;;;;;;;2.11;100.00;99689.47;5040817;28;20225;-76
2021/11/26 01:16:34;;;;;;;23.93;12.77;;;;;;;2.11;100.00;99693.75;5042677;28;20203;-75
2021/11/26 01:19:00;;;;;;;22.27;13.20;;;;;;;2.09;100.00;99686.03;5040908;28;20261;-76
2021/11/26 01:21:28;;;;;;;19.03;11.80;;;;;;;2.11;100.00;99684.34;5043308;28;20732;-76
2021/11/26 01:23:55;;;;;;;20.77;12.97;;;;;;;2.09;100.00;99686.03;5040328;28;20644;-76
2021/11/26 01:26:21;;;;;;;19.83;12.03;;;;;;;2.09;100.00;99678.31;5042405;28;20227;-76
2021/11/26 01:28:49;;;;;;;20.80;12.20;;;;;;;2.11;100.00;99671.47;5040788;28;20203;-76
2021/11/26 01:31:16;;;;;;;18.80;11.67;;;;;;;2.10;100.00;99669.75;5042990;28;20214;-76
2021/11/26 01:33:43;;;;;;;18.33;12.33;;;;;;;2.11;100.00;99665.47;5037363;28;20716;-75
2021/11/26 01:36:10;;;;;;;19.50;11.97;;;;;;;2.11;100.00;99666.34;5040225;28;20325;-76
2021/11/26 01:38:37;;;;;;;18.93;11.83;;;;;;;2.12;100.00;99655.16;5037095;28;20218;-75
2021/11/26 01:41:08;;;;;;;25.70;12.40;;;;;;;2.12;100.00;99649.19;5042442;28;20214;-76
2021/11/26 01:43:35;;;;;;;21.60;12.10;;;;;;;2.14;100.00;99652.59;5039873;28;20961;-76
2021/11/26 01:46:06;;;;;;;18.30;11.87;;;;;;;2.15;100.00;99644.00;5040885;28;20815;-75
2021/11/26 01:48:33;;;;;;;21.17;12.33;;;;;;;2.14;100.00;99648.28;5040931;28;20199;-76
2021/11/26 01:50:59;;;;;;;19.47;12.30;;;;;;;2.15;100.00;99642.28;5041319;28;20215;-76
2021/11/26 01:53:26;;;;;;;19.43;12.33;;;;;;;2.15;100.00;99641.44;5039044;28;20238;-76
2021/11/26 01:55:53;;;;;;;18.53;12.03;;;;;;;2.12;100.00;99642.31;5039764;28;20195;-76
2021/11/26 01:58:21;;;;;;;21.63;12.20;;;;;;;2.16;100.00;99648.28;5042389;28;20203;-76
2021/11/26 02:00:48;;;;;;;20.73;12.00;;;;;;;2.16;100.00;99648.28;5022778;28;20218;-77
2021/11/26 02:03:16;;;;;;;23.43;12.57;;;;;;;2.16;100.00;99640.56;5042287;28;20226;-76
2021/11/26 02:05:42;;;;;;;19.83;11.70;;;;;;;2.14;100.00;99650.84;5039602;28;20223;-76
2021/11/26 02:08:09;;;;;;;18.43;11.57;;;;;;;2.15;100.00;99641.44;5042215;28;20210;-77
2021/11/26 02:10:36;;;;;;;20.57;13.33;;;;;;;2.16;100.00;99638.00;5038992;28;20210;-76
2021/11/26 02:13:05;;;;;;;22.07;13.67;;;;;;;2.16;100.00;99643.13;5041761;28;20211;-76
2021/11/26 02:15:31;;;;;;;22.27;12.57;;;;;;;2.13;100.00;99633.75;5036972;28;20211;-76
2021/11/26 02:18:00;;;;;;;23.70;12.60;;;;;;;2.11;100.00;99632.91;5043544;28;20195;-76
2021/11/26 02:20:30;;;;;;;19.33;12.13;;;;;;;2.10;100.00;99636.31;5037015;28;20218;-76
2021/11/26 02:22:58;;;;;;;19.47;12.37;;;;;;;2.13;100.00;99630.28;5040148;28;20226;-77
2021/11/26 02:25:26;;;;;;;19.60;11.77;;;;;;;2.12;100.00;99623.47;5042115;28;20207;-77
2021/11/26 02:27:55;;;;;;;23.27;12.07;;;;;;;2.11;100.00;99621.75;5044191;28;20203;-77
2021/11/26 02:30:21;;;;;;;17.37;11.50;;;;;;;2.11;100.00;99624.31;5042293;28;20207;-78
2021/11/26 02:32:53;;;;;;;18.87;11.33;;;;;;;2.10;100.00;99625.19;5043303;28;20233;-77
2021/11/26 02:35:20;;;;;;;18.00;11.77;;;;;;;2.10;100.00;99617.47;5041338;28;20656;-77
2021/11/26 02:37:48;;;;;;;23.07;11.53;;;;;;;2.11;100.00;99616.59;5044085;28;20213;-77
2021/11/26 02:40:17;;;;;;;17.80;11.37;;;;;;;2.12;100.00;99615.75;5043590;28;20211;-78
2021/11/26 02:42:44;;;;;;;18.40;11.63;;;;;;;2.08;100.00;99612.34;5043422;28;20720;-78
2021/11/26 02:45:12;;;;;;;19.70;11.57;;;;;;;2.08;100.00;99613.19;5046798;28;20270;-77
2021/11/26 02:47:41;;;;;;;17.13;10.23;;;;;;;2.08;100.00;99617.47;5041532;28;20227;-77
2021/11/26 02:50:10;;;;;;;17.83;11.37;;;;;;;2.06;100.00;99608.94;5046487;28;20202;-78
2021/11/26 02:52:39;;;;;;;21.37;12.43;;;;;;;2.06;100.00;99606.38;5043306;28;20227;-78
2021/11/26 02:55:09;;;;;;;20.27;11.37;;;;;;;2.06;100.00;99612.34;5045955;28;20200;-78
2021/11/26 02:57:36;;;;;;;19.37;11.23;;;;;;;2.05;100.00;99604.66;5042200;28;20561;-78
2021/11/26 03:00:04;;;;;;;20.67;12.27;;;;;;;2.04;100.00;99598.66;5046363;28;20192;-79
2021/11/26 03:02:30;;;;;;;19.73;11.33;;;;;;;2.06;100.00;99591.78;5043361;28;20310;-78
2021/11/26 03:04:57;;;;;;;20.70;11.80;;;;;;;2.05;100.00;99589.22;5040517;28;20206;-78
2021/11/26 03:07:23;;;;;;;18.23;11.50;;;;;;;2.04;100.00;99584.94;5044160;28;20219;-78
2021/11/26 03:09:50;;;;;;;17.90;10.73;;;;;;;2.04;100.00;99577.22;5046761;28;20207;-78
2021/11/26 03:12:17;;;;;;;19.27;11.33;;;;;;;2.04;100.00;99570.38;5041667;28;20223;-78
2021/11/26 03:14:44;;;;;;;18.27;10.93;;;;;;;2.04;100.00;99578.09;5045324;28;20207;-78
2021/11/26 03:17:10;;;;;;;18.87;10.93;;;;;;;2.04;100.00;99564.34;5043882;28;20878;-78
2021/11/26 03:19:37;;;;;;;18.97;11.07;;;;;;;2.05;100.00;99569.50;5043994;28;20209;-78
2021/11/26 03:22:04;;;;;;;20.43;11.30;;;;;;;2.06;100.00;99567.78;5043077;28;20225;-78
2021/11/26 03:24:30;;;;;;;19.03;10.53;;;;;;;2.05;100.00;99566.06;5042976;28;20211;-78
2021/11/26 03:26:56;;;;;;;19.20;11.60;;;;;;;2.05;100.00;99560.94;5042484;28;20220;-78
2021/11/26 03:29:24;;;;;;;17.00;10.97;;;;;;;2.07;100.00;99561.75;5043725;28;20211;-78
2021/11/26 03:31:50;;;;;;;20.03;11.30;;;;;;;2.09;100.00;99560.03;5027578;28;20199;-78
2021/11/26 03:34:17;;;;;;;16.93;10.70;;;;;;;2.07;100.00;99561.75;5040892;28;20204;-77
2021/11/26 03:36:44;;;;;;;19.17;10.87;;;;;;;2.07;100.00;99560.03;5044182;28;20210;-77
2021/11/26 03:39:10;;;;;;;17.33;10.67;;;;;;;2.06;100.00;99555.78;5043223;28;21187;-78
2021/11/26 03:41:37;;;;;;;19.33;10.97;;;;;;;2.08;100.00;99556.63;5043422;28;20723;-78
2021/11/26 03:44:03;;;;;;;17.47;11.17;;;;;;;2.05;100.00;99554.06;5046437;28;20208;-77
2021/11/26 03:46:31;;;;;;;16.27;10.20;;;;;;;2.06;100.00;99557.50;5042874;28;20215;-78
2021/11/26 03:48:57;;;;;;;17.30;10.17;;;;;;;2.03;100.00;99558.38;5041105;28;20203;-78
2021/11/26 03:51:24;;;;;;;18.47;10.73;;;;;;;2.06;100.00;99562.66;5045405;28;20461;-78
2021/11/26 03:53:51;;;;;;;16.47;10.73;;;;;;;2.07;100.00;99548.91;5042848;28;20227;-78
2021/11/26 03:56:17;;;;;;;15.27;9.73;;;;;;;2.07;100.00;99549.75;5045173;28;20199;-78
2021/11/26 03:58:43;;;;;;;17.63;10.90;;;;;;;2.04;100.00;99547.22;5040219;28;20199;-78
2021/11/26 04:01:10;;;;;;;19.40;11.17;;;;;;;2.05;100.00;99542.94;5047271;28;20301;-78
2021/11/26 04:03:38;;;;;;;20.00;10.73;;;;;;;2.06;100.00;99542.94;5046683;28;20317;-77
2021/11/26 04:06:05;;;;;;;18.00;10.70;;;;;;;2.08;100.00;99536.03;5043829;28;20218;-78
2021/11/26 04:08:31;;;;;;;16.53;10.73;;;;;;;2.08;100.00;99537.78;5046141;28;20214;-78
2021/11/26 04:10:57;;;;;;;18.70;10.70;;;;;;;2.07;100.00;99541.19;5047677;28;20196;-78
2021/11/26 04:13:24;;;;;;;15.57;10.13;;;;;;;2.05;100.00;99541.19;5047020;28;20726;-78
2021/11/26 04:15:50;;;;;;;16.93;10.50;;;;;;;2.05;100.00;99537.78;5048197;28;20214;-78
2021/11/26 04:18:16;;;;;;;18.57;10.43;;;;;;;2.09;100.00;99536.88;5046038;28;20203;-77
2021/11/26 04:20:45;;;;;;;19.30;11.37;;;;;;;2.10;100.00;99536.03;5048420;28;20195;-78
2021/11/26 04:23:12;;;;;;;19.70;12.23;;;;;;;2.09;100.00;99534.31;5044058;28;20705;-78
2021/11/26 04:25:38;;;;;;;23.53;14.00;;;;;;;2.11;100.00;99521.44;5045631;28;20211;-78
2021/11/26 04:28:05;;;;;;;21.83;12.87;;;;;;;2.08;100.00;99522.34;5047751;28;20226;-78
2021/11/26 04:30:32;;;;;;;21.93;12.30;;;;;;;2.06;100.00;99518.94;5047912;28;20217;-78
2021/11/26 04:32:58;;;;;;;19.27;12.30;;;;;;;2.07;100.00;99525.75;5046783;28;20222;-78
2021/11/26 04:35:26;;;;;;;19.47;10.60;;;;;;;2.05;100.00;99524.94;5047318;28;20214;-78
2021/11/26 04:37:54;;;;;;;19.07;12.17;;;;;;;2.03;100.00;99509.50;5049541;28;20206;-78
2021/11/26 04:40:20;;;;;;;18.13;11.10;;;;;;;2.01;100.00;99518.97;5046197;28;20199;-77
2021/11/26 04:42:47;;;;;;;18.63;11.73;;;;;;;1.99;100.00;99507.84;5049287;28;20229;-78
2021/11/26 04:45:15;;;;;;;20.83;11.23;;;;;;;2.01;100.00;99507.84;5039190;28;20235;-76
2021/11/26 04:47:42;;;;;;;18.43;11.40;;;;;;;1.97;100.00;99509.59;5043575;28;20223;-76
2021/11/26 04:50:09;;;;;;;20.10;12.17;;;;;;;2.02;100.00;99505.25;5041131;28;20203;-76
2021/11/26 04:52:36;;;;;;;19.93;11.63;;;;;;;2.04;100.00;99503.53;5042069;28;20336;-76
2021/11/26 04:55:04;;;;;;;18.67;11.50;;;;;;;2.00;100.00;99501.81;5042524;28;20202;-76
2021/11/26 04:57:31;;;;;;;18.17;11.00;;;;;;;2.00;100.00;99501.81;5043889;28;20214;-76
2021/11/26 04:59:57;;;;;;;19.90;11.13;;;;;;;1.99;100.00;99492.41;5039018;28;20302;-76
2021/11/26 05:02:25;;;;;;;18.83;12.10;;;;;;;1.98;100.00;99495.00;5042745;28;20226;-77
2021/11/26 05:04:52;;;;;;;19.30;10.73;;;;;;;1.98;100.00;99484.72;5040885;28;20211;-76
2021/11/26 05:07:20;;;;;;;18.77;10.33;;;;;;;1.98;100.00;99490.69;5044413;28;20923;-79
2021/11/26 05:09:47;;;;;;;19.23;10.80;;;;;;;2.00;100.00;99483.81;5049468;28;20206;-78
2021/11/26 05:12:15;;;;;;;18.90;10.93;;;;;;;1.98;100.00;99492.44;5052202;28;20227;-78
2021/11/26 05:14:41;;;;;;;18.03;10.93;;;;;;;1.99;100.00;99491.56;5056207;28;20203;-76
2021/11/26 05:17:08;;;;;;;16.17;10.07;;;;;;;2.00;100.00;99493.25;5057317;28;20687;-75
2021/11/26 05:19:34;;;;;;;18.17;10.33;;;;;;;1.98;100.00;99495.00;5039656;28;20640;-75
2021/11/26 05:22:01;;;;;;;17.43;10.60;;;;;;;1.99;100.00;99492.41;5057477;28;20315;-76
2021/11/26 05:24:27;;;;;;;19.97;9.93;;;;;;;1.98;100.00;99492.44;5052196;28;20211;-76
2021/11/26 05:26:54;;;;;;;19.63;10.40;;;;;;;1.99;100.00;99495.00;5041818;28;21002;-76
2021/11/26 05:29:21;;;;;;;18.20;10.03;;;;;;;2.01;100.00;99484.69;5043566;28;20192;-77
2021/11/26 05:31:48;;;;;;;17.10;10.40;;;;;;;2.01;100.00;99489.84;5042103;28;20585;-76
2021/11/26 05:34:14;;;;;;;22.47;10.90;;;;;;;1.99;100.00;99479.56;5043711;28;20203;-77
2021/11/26 05:36:42;;;;;;;18.87;10.93;;;;;;;1.99;100.00;99478.72;5039951;28;20201;-77
2021/11/26 05:39:08;;;;;;;16.17;10.07;;;;;;;1.98;100.00;99477.84;5041854;28;20207;-77
2021/11/26 05:41:35;;;;;;;17.57;10.23;;;;;;;1.99;100.00;99478.72;5040473;28;20203;-76
2021/11/26 05:44:01;;;;;;;17.30;10.00;;;;;;;1.98;100.00;99477.84;5034155;28;20220;-76
2021/11/26 05:46:29;;;;;;;17.57;9.87;;;;;;;2.00;100.00;99476.09;5040872;28;20212;-76
2021/11/26 05:48:55;;;;;;;14.80;9.30;;;;;;;2.01;100.00;99479.56;5045643;28;20203;-76
2021/11/26 05:51:22;;;;;;;15.57;10.33;;;;;;;1.97;100.00;99476.16;5041758;28;20207;-76
2021/11/26 05:53:48;;;;;;;17.50;9.77;;;;;;;1.98;100.00;99471.88;5049252;28;20593;-76
2021/11/26 05:56:15;;;;;;;17.40;9.77;;;;;;;1.99;100.00;99466.72;5045088;28;20208;-77
2021/11/26 05:58:41;;;;;;;15.07;9.43;;;;;;;1.97;100.00;99459.88;5045895;28;20207;-76
2021/11/26 06:01:08;;;;;;;16.83;10.33;;;;;;;1.96;100.00;99468.47;5044284;28;20215;-76
2021/11/26 06:03:35;;;;;;;22.00;11.27;;;;;;;1.96;100.00;99460.75;5053935;28;20233;-76
2021/11/26 06:06:02;;;;;;;17.03;10.30;;;;;;;1.93;100.00;99460.78;5054596;28;20207;-76
2021/11/26 06:08:29;;;;;;;46.23;21.80;;;;;;;1.96;100.00;99448.75;5054634;28;20227;-76
2021/11/26 06:10:55;;;;;;;19.03;10.97;;;;;;;1.92;100.00;99448.78;5051935;28;20207;-76
2021/11/26 06:13:22;;;;;;;17.63;10.33;;;;;;;1.94;100.00;99453.06;5052452;28;20238;-75
2021/11/26 06:15:49;;;;;;;20.57;11.20;;;;;;;1.93;100.00;99442.78;5047479;28;20204;-76
2021/11/26 06:18:15;;;;;;;23.80;10.57;;;;;;;1.92;100.00;99441.06;5051267;28;20203;-76
2021/11/26 06:20:43;;;;;;;19.27;10.97;;;;;;;1.92;100.00;99434.22;5049231;28;20278;-76
2021/11/26 06:23:10;;;;;;;17.53;10.73;;;;;;;1.92;100.00;99435.91;5051392;28;20235;-76
2021/11/26 06:25:37;;;;;;;19.50;11.20;;;;;;;1.89;100.00;99432.50;5049637;28;20199;-76
2021/11/26 06:28:03;;;;;;;19.80;11.07;;;;;;;1.89;100.00;99432.50;5053819;28;20570;-76
2021/11/26 06:30:30;;;;;;;19.33;10.57;;;;;;;1.89;100.00;99435.09;5045060;28;20222;-76
2021/11/26 06:32:56;;;;;;;20.13;10.83;;;;;;;1.91;100.00;99442.78;5044449;28;20223;-76
2021/11/26 06:35:24;;;;;;;18.53;11.67;;;;;;;1.88;100.00;99433.41;5040156;28;20291;-76
2021/11/26 06:37:55;;;;;;;20.13;11.73;;;;;;;1.88;100.00;99424.81;5035441;28;20209;-76
2021/11/26 06:40:22;;;;;;;18.10;11.43;;;;;;;1.87;100.00;99421.41;5035144;28;20198;-76
2021/11/26 06:42:49;;;;;;;19.13;11.17;;;;;;;1.87;100.00;99415.41;5037407;28;20220;-77
2021/11/26 06:45:15;;;;;;;22.03;13.23;;;;;;;1.86;100.00;99416.28;5038132;28;20191;-76
2021/11/26 06:47:42;;;;;;;21.03;12.10;;;;;;;1.87;100.00;99418.00;5036608;28;20215;-75
2021/11/26 06:50:10;;;;;;;20.67;12.47;;;;;;;1.87;100.00;99411.13;5037302;28;20694;-76
2021/11/26 06:52:36;;;;;;;22.57;13.20;;;;;;;1.87;100.00;99402.56;5034845;28;20652;-76
2021/11/26 06:55:05;;;;;;;26.67;15.77;;;;;;;1.86;100.00;99409.41;5037973;28;20205;-76
2021/11/26 06:57:32;;;;;;;22.87;14.03;;;;;;;1.86;100.00;99408.56;5036878;28;20203;-76
2021/11/26 06:59:58;;;;;;;22.37;14.50;;;;;;;1.87;100.00;99407.72;5042335;28;20203;-76
2021/11/26 07:02:25;;;;;;;21.77;12.83;;;;;;;1.87;100.00;99405.97;5041847;28;20241;-76
2021/11/26 07:04:51;;;;;;;25.83;12.20;;;;;;;1.86;100.00;99409.41;5041383;28;20286;-76
2021/11/26 07:07:18;;;;;;;18.93;11.63;;;;;;;1.90;100.00;99402.53;5041494;28;20321;-76
2021/11/26 07:09:44;;;;;;;21.80;11.90;;;;;;;1.91;100.00;99399.09;5042464;28;20214;-76
2021/11/26 07:12:12;;;;;;;24.53;11.80;;;;;;;1.93;100.00;99399.91;5041510;28;20227;-76
2021/11/26 07:14:39;;;;;;;20.53;11.23;;;;;;;1.96;100.00;99401.63;5038282;28;20205;-76
2021/11/26 07:17:06;;;;;;;22.50;13.27;;;;;;;1.96;100.00;99393.91;5042651;28;20619;-76
2021/11/26 07:19:32;;;;;;;22.87;13.53;;;;;;;1.97;100.00;99398.16;5041471;28;20274;-77
2021/11/26 07:22:00;;;;;;;20.30;11.40;;;;;;;1.96;100.00;99404.19;5042825;28;20277;-76
2021/11/26 07:24:27;;;;;;;22.67;12.40;;;;;;;1.96;100.00;99394.75;5042268;28;20265;-76
2021/11/26 07:26:53;;;;;;;19.70;11.40;;;;;;;1.94;100.00;99391.34;5045638;28;20206;-76
2021/11/26 07:29:21;;;;;;;19.90;11.17;;;;;;;1.97;100.00;99399.03;5041716;28;20207;-76
2021/11/26 07:31:47;;;;;;;20.40;11.63;;;;;;;1.96;100.00;99399.06;5041815;28;20207;-75
2021/11/26 07:34:14;;;;;;;19.60;11.30;;;;;;;1.96;100.00;99389.59;5041018;28;20217;-77
2021/11/26 07:36:41;;;;;;;19.93;11.40;;;;;;;2.00;100.00;99388.69;5046458;28;20207;-77
2021/11/26 07:39:08;;;;;;;22.33;12.27;;;;;;;2.01;100.00;99395.56;5045328;28;20315;-78
2021/11/26 07:41:34;;;;;;;21.63;12.20;;;;;;;2.03;100.00;99398.94;5047729;28;20207;-77
2021/11/26 07:44:01;;;;;;;21.70;11.30;;;;;;;2.04;100.00;99390.38;5047702;28;20304;-78
2021/11/26 07:46:28;;;;;;;23.03;10.97;;;;;;;2.06;100.00;99388.66;5046559;28;20212;-78
2021/11/26 07:48:55;;;;;;;22.20;11.90;;;;;;;2.09;100.00;99380.03;5043817;28;20218;-77
2021/11/26 07:51:21;;;;;;;21.23;12.37;;;;;;;2.12;100.00;99376.59;5048133;28;20207;-78
2021/11/26 07:53:48;;;;;;;22.80;12.07;;;;;;;2.16;100.00;99375.66;5044605;28;20227;-78
2021/11/26 07:56:14;;;;;;;17.80;10.50;;;;;;;2.16;100.00;99370.53;5049650;28;20203;-77
2021/11/26 07:58:40;;;;;;;20.90;12.87;;;;;;;2.21;100.00;99363.63;5043504;28;20199;-78
2021/11/26 08:01:07;;;;;;;26.20;14.67;;;;;;;2.20;100.00;99367.91;5042871;28;20639;-77
2021/11/26 08:03:34;;;;;;;25.20;13.63;;;;;;;2.20;100.00;99373.06;5044567;28;20237;-77
2021/11/26 08:06:01;;;;;;;23.23;12.60;;;;;;;2.25;100.00;99372.97;5048394;28;20211;-78
2021/11/26 08:08:27;;;;;;;19.77;11.77;;;;;;;2.27;100.00;99363.56;5043165;28;20318;-78
2021/11/26 08:10:54;;;;;;;20.30;10.93;;;;;;;2.31;100.00;99364.38;5047047;28;20225;-78
2021/11/26 08:13:20;;;;;;;17.83;10.77;;;;;;;2.32;100.00;99364.31;5046258;28;20237;-77
2021/11/26 08:15:47;;;;;;;19.13;9.70;;;;;;;2.30;100.00;99366.06;5045102;28;20677;-78
2021/11/26 08:18:13;;;;;;;19.07;10.33;;;;;;;2.30;100.00;99372.94;5047252;28;20199;-78
2021/11/26 08:20:41;;;;;;;20.17;11.00;;;;;;;2.30;100.00;99363.50;5045901;28;20249;-77
2021/11/26 08:23:09;;;;;;;18.17;10.17;;;;;;;2.28;100.00;99370.38;5045187;28;20233;-76
2021/11/26 08:25:36;;;;;;;16.90;10.50;;;;;;;2.28;100.00;99368.66;5043009;28;20199;-75
2021/11/26 08:28:04;;;;;;;17.53;10.63;;;;;;;2.30;100.00;99362.66;5041663;28;20211;-76
2021/11/26 08:30:31;;;;;;;21.03;10.60;;;;;;;2.31;100.00;99354.06;5041742;28;20681;-76
2021/11/26 08:32:58;;;;;;;19.07;10.90;;;;;;;2.32;100.00;99353.19;5042648;28;20242;-76
2021/11/26 08:35:25;;;;;;;18.50;10.90;;;;;;;2.32;100.00;99351.44;5041486;28;20226;-75
2021/11/26 08:37:54;;;;;;;18.77;10.20;;;;;;;2.30;100.00;99355.78;5041386;28;20199;-76
2021/11/26 08:40:20;;;;;;;17.80;10.27;;;;;;;2.30;100.00;99350.63;5038379;28;20203;-75
2021/11/26 08:42:48;;;;;;;20.70;10.67;;;;;;;2.27;100.00;99350.69;5041156;28;20785;-76
2021/11/26 08:45:15;;;;;;;17.27;10.80;;;;;;;2.27;100.00;99351.53;5041226;28;20791;-76
2021/11/26 08:47:42;;;;;;;20.30;11.27;;;;;;;2.27;100.00;99353.25;5041757;28;20223;-76
2021/11/26 08:50:13;;;;;;;21.83;11.80;;;;;;;2.27;100.00;99354.09;5041489;28;20612;-77
2021/11/26 08:52:40;;;;;;;24.90;11.97;;;;;;;2.25;100.00;99350.72;5042735;28;20772;-76
2021/11/26 08:55:12;;;;;;;20.33;10.97;;;;;;;2.22;100.00;99343.03;5040016;28;20200;-77
2021/11/26 08:57:39;;;;;;;19.50;11.70;;;;;;;2.21;100.00;99353.31;5046999;28;20223;-74
2021/11/26 09:00:07;;;;;;;20.87;12.13;;;;;;;2.18;100.00;99349.09;5041220;28;20538;-76
2021/11/26 09:02:33;;;;;;;19.87;11.63;;;;;;;2.13;100.00;99339.69;5042486;28;20227;-75
2021/11/26 09:05:00;;;;;;;20.00;11.53;;;;;;;2.11;100.00;99336.31;5040707;28;20202;-76
2021/11/26 09:07:27;;;;;;;22.23;13.10;;;;;;;2.07;100.00;99332.91;5042867;28;20286;-75
2021/11/26 09:09:54;;;;;;;20.43;11.70;;;;;;;2.04;100.00;99331.25;5041525;28;20541;-76
2021/11/26 09:12:25;;;;;;;18.07;10.87;;;;;;;2.03;100.00;99336.41;5042045;28;20769;-75
2021/11/26 09:14:51;;;;;;;19.40;11.07;;;;;;;2.01;100.00;99326.13;5041172;28;20199;-75
2021/11/26 09:17:19;;;;;;;24.27;10.80;;;;;;;2.02;100.00;99324.41;5041099;28;20207;-77
2021/11/26 09:19:46;;;;;;;21.87;11.37;;;;;;;2.03;100.00;99321.81;5041160;28;20187;-76
2021/11/26 09:22:12;;;;;;;21.20;11.53;;;;;;;2.08;100.00;99322.63;5041293;28;20234;-76
2021/11/26 09:24:39;;;;;;;17.40;10.93;;;;;;;2.16;100.00;99313.94;5041889;28;20211;-76
2021/11/26 09:27:05;;;;;;;24.43;12.43;;;;;;;2.26;100.00;99312.97;5040113;28;20219;-76
2021/11/26 09:29:33;;;;;;;22.20;11.87;;;;;;;2.38;100.00;99306.81;5041831;28;20233;-78
2021/11/26 09:32:01;;;;;;;20.20;10.60;;;;;;;2.51;100.00;99307.47;5041093;28;20226;-78
2021/11/26 09:34:27;;;;;;;23.80;12.30;;;;;;;2.61;100.00;99298.75;5044022;28;20210;-78
2021/11/26 09:36:55;;;;;;;20.57;12.40;;;;;;;2.72;100.00;99296.03;5042969;28;20234;-78
2021/11/26 09:39:22;;;;;;;20.13;11.37;;;;;;;2.84;100.00;99299.25;5044358;28;20600;-79
2021/11/26 09:41:49;;;;;;;18.83;11.73;;;;;;;2.85;100.00;99294.97;5040740;28;20229;-75
2021/11/26 09:44:15;;;;;;;22.07;12.40;;;;;;;2.91;100.00;99284.56;5042870;28;20210;-75
2021/11/26 09:46:45;;;;;;;18.60;10.13;;;;;;;2.92;100.00;99290.56;5039557;28;20210;-75
2021/11/26 09:49:11;;;;;;;18.00;10.47;;;;;;;2.95;100.00;99293.09;5042307;28;20215;-75
2021/11/26 09:51:37;;;;;;;17.87;10.00;;;;;;;3.03;100.00;99281.78;5038026;28;20215;-76
2021/11/26 09:54:06;;;;;;;20.70;11.60;;;;;;;3.07;100.00;99290.31;5042415;28;20209;-75
2021/11/26 09:56:34;;;;;;;15.97;10.13;;;;;;;3.11;100.00;99280.81;5040078;28;20222;-76
2021/11/26 09:59:00;;;;;;;18.90;10.83;;;;;;;3.17;100.00;99280.72;5041535;28;20592;-76
2021/11/26 10:01:27;;;;;;;17.97;10.33;;;;;;;3.21;100.00;99279.78;5038650;28;20215;-76
2021/11/26 10:03:55;;;;;;;18.23;10.50;;;;;;;3.19;100.00;99277.22;5039856;28;20795;-75
2021/11/26 10:06:24;;;;;;;18.73;10.47;;;;;;;3.17;100.00;99268.66;5041058;28;20207;-76
2021/11/26 10:09:05;;;;;;;19.47;10.53;;;;;;;3.16;100.00;99279.84;5041245;28;20227;-76
2021/11/26 10:11:37;;;;;;;15.03;9.17;;;;;;;3.21;100.00;99277.19;5041123;28;20211;-76
2021/11/26 10:14:12;;;;;;;16.47;9.93;;;;;;;3.22;100.00;99266.03;5036577;28;20683;-76
2021/11/26 10:16:43;;;;;;;17.47;10.00;;;;;;;3.25;100.00;99267.69;5038267;28;20206;-76
2021/11/26 10:19:12;;;;;;;17.47;9.90;;;;;;;3.26;100.00;99259.94;5039396;28;20215;-76
2021/11/26 10:21:39;;;;;;;18.47;10.23;;;;;;;3.31;100.00;99255.56;5042283;28;20487;-76
2021/11/26 10:24:14;;;;;;;17.57;10.40;;;;;;;3.36;100.00;99251.16;5038837;28;20211;-76
2021/11/26 10:26:41;;;;;;;15.17;9.60;;;;;;;3.47;100.00;99247.53;5041103;28;20288;-76
2021/11/26 10:29:07;;;;;;;19.67;10.67;;;;;;;3.54;100.00;99237.06;5039262;28;20215;-76
2021/11/26 10:31:36;;;;;;;17.90;10.60;;;;;;;3.60;100.00;99225.78;5040857;28;20207;-75
2021/11/26 10:34:05;;;;;;;19.97;10.70;;;;;;;3.65;100.00;99220.56;5039630;28;20320;-79
2021/11/26 10:36:43;;;;;;;21.83;10.43;;;;;;;3.76;100.00;99206.56;5040812;28;20204;-75
2021/11/26 10:39:12;;;;;;;16.57;10.57;;;;;;;3.75;100.00;99211.75;5038639;28;20208;-77
2021/11/26 10:41:39;;;;;;;20.47;10.07;;;;;;;3.79;100.00;99196.16;5037559;28;20256;-76
2021/11/26 10:44:10;;;;;;;17.33;10.17;;;;;;;3.81;100.00;99195.31;5040519;28;20683;-76
2021/11/26 10:46:44;;;;;;;18.53;10.47;;;;;;;3.86;100.00;99190.91;5039480;28;20218;-75
2021/11/26 10:52:34;;;;;;;25.10;13.33;;;;;;;3.92;100.00;99201.06;4960019;28;20233;-78
2021/11/26 10:58:01;;;;;;;18.03;11.10;;;;;;;4.00;99.29;99194.00;5042001;28;20221;-78
2021/11/26 11:00:28;;;;;;;18.60;10.73;;;;;;;4.02;99.97;99181.09;5040944;28;20205;-78
2021/11/26 11:02:56;;;;;;;17.17;10.13;;;;;;;3.97;99.51;99184.63;5042021;28;20230;-76
2021/11/26 11:05:26;;;;;;;17.00;10.13;;;;;;;4.02;99.50;99176.78;5042165;28;20289;-79
2021/11/26 11:07:54;;;;;;;15.87;9.30;;;;;;;4.07;98.67;99179.25;5041700;28;20203;-78
2021/11/26 11:10:27;;;;;;;17.13;10.60;;;;;;;4.05;98.36;99175.88;5044376;28;20226;-78
2021/11/26 11:12:54;;;;;;;14.70;9.70;;;;;;;4.02;98.36;99165.63;5047251;28;20231;-78
2021/11/26 11:15:22;;;;;;;16.23;9.67;;;;;;;4.13;99.73;99159.34;5042194;28;20577;-78
2021/11/26 11:17:50;;;;;;;17.77;9.83;;;;;;;4.19;98.37;99163.50;5045269;28;20195;-78
2021/11/26 11:20:17;;;;;;;16.07;10.17;;;;;;;4.19;98.42;99153.19;5042881;28;20757;-78
2021/11/26 11:22:45;;;;;;;15.83;10.50;;;;;;;4.19;98.47;99145.44;5046120;28;20310;-78